createdAt,value
2023-02-22T00:00:54.407Z,5.66
2023-02-22T00:06:03.994Z,5.74
2023-02-22T00:11:10.491Z,5.81
2023-02-22T00:16:19.055Z,6.00
2023-02-22T00:21:24.729Z,6.05
2023-02-22T00:26:31.911Z,6.12
2023-02-22T00:31:39.530Z,6.27
2023-02-22T00:36:49.998Z,6.42
2023-02-22T00:41:55.618Z,6.57
2023-02-22T00:47:01.432Z,6.59
2023-02-22T00:52:09.234Z,6.62
2023-02-22T00:57:17.018Z,6.59
2023-02-22T01:02:22.302Z,6.62
2023-02-22T01:07:27.798Z,6.65
2023-02-22T01:12:33.622Z,6.72
2023-02-22T01:17:41.794Z,6.83
2023-02-22T01:22:49.401Z,6.98
2023-02-22T01:27:56.653Z,6.79
2023-02-22T01:33:04.144Z,6.77
2023-02-22T01:38:11.553Z,6.83
2023-02-22T01:43:30.029Z,6.91
2023-02-22T01:48:44.637Z,6.74
2023-02-22T01:54:02.139Z,6.82
2023-02-22T01:59:10.857Z,6.93
2023-02-22T02:04:20.871Z,6.80
2023-02-22T02:09:41.447Z,6.79
2023-02-22T02:14:47.048Z,6.56
2023-02-22T02:20:06.229Z,6.50
2023-02-22T02:25:43.263Z,6.42
2023-02-22T02:31:10.323Z,6.23
2023-02-22T02:36:21.624Z,6.19
2023-02-22T02:41:30.116Z,6.28
2023-02-22T02:46:42.376Z,6.22
2023-02-22T02:51:50.949Z,6.11
2023-02-22T02:56:58.494Z,5.86
2023-02-22T03:02:27.925Z,5.87
2023-02-22T03:07:36.385Z,5.61
2023-02-22T03:12:50.717Z,5.63
2023-02-22T03:18:08.127Z,5.54
2023-02-22T03:23:25.589Z,5.48
2023-02-22T03:28:33.321Z,5.13
2023-02-22T03:33:54.573Z,5.09
2023-02-22T03:39:04.405Z,5.11
2023-02-22T03:44:13.220Z,4.68
2023-02-22T03:49:37.122Z,4.68
2023-02-22T03:54:44.418Z,4.70
2023-02-22T03:59:50.592Z,4.69
2023-02-22T04:04:56.203Z,4.48
2023-02-22T04:10:03.896Z,4.55
2023-02-22T04:15:12.368Z,4.56
2023-02-22T04:20:20.599Z,4.29
2023-02-22T04:25:29.003Z,4.31
2023-02-22T04:30:34.681Z,4.12
2023-02-22T04:35:41.800Z,4.23
2023-02-22T04:40:47.358Z,4.15
2023-02-22T04:45:53.293Z,4.18
2023-02-22T04:50:59.048Z,4.08
2023-02-22T04:56:06.769Z,4.12
2023-02-22T05:01:13.436Z,3.86
2023-02-22T05:06:20.222Z,3.63
2023-02-22T05:11:26.133Z,3.72
2023-02-22T05:16:31.759Z,3.69
2023-02-22T05:21:37.141Z,3.65
2023-02-22T05:26:44.092Z,3.75
2023-02-22T05:31:51.194Z,3.76
2023-02-22T05:36:56.725Z,3.71
2023-02-22T05:42:02.192Z,3.67
2023-02-22T05:47:07.564Z,3.65
2023-02-22T05:52:12.994Z,3.59
2023-02-22T05:57:18.603Z,3.57
2023-02-22T06:02:24.731Z,3.51
2023-02-22T06:07:30.181Z,3.39
2023-02-22T06:12:35.795Z,3.34
2023-02-22T06:17:41.998Z,3.34
2023-02-22T06:22:56.040Z,3.45
2023-02-22T06:28:02.145Z,3.42
2023-02-22T06:33:07.690Z,3.31
2023-02-22T06:38:13.451Z,3.42
2023-02-22T06:43:19.746Z,3.65
2023-02-22T06:48:25.178Z,3.86
2023-02-22T06:53:30.721Z,3.90
2023-02-22T06:58:36.835Z,3.78
2023-02-22T07:03:42.628Z,3.93
2023-02-22T07:08:49.958Z,4.01
2023-02-22T07:13:57.058Z,4.21
2023-02-22T07:19:02.658Z,4.22
2023-02-22T07:24:08.594Z,4.34
2023-02-22T07:29:14.035Z,4.76
2023-02-22T07:34:19.597Z,4.76
2023-02-22T07:39:27.236Z,4.94
2023-02-22T07:44:32.723Z,5.02
2023-02-22T07:49:39.861Z,5.17
2023-02-22T07:54:47.897Z,5.24
2023-02-22T07:59:54.780Z,5.39
2023-02-22T08:05:00.479Z,5.39
2023-02-22T08:10:08.782Z,5.49
2023-02-22T08:15:29.496Z,5.66
2023-02-22T08:20:36.632Z,5.79
2023-02-22T08:25:42.418Z,5.88
2023-02-22T08:30:48.197Z,6.21
2023-02-22T08:35:53.826Z,6.25
2023-02-22T08:40:59.456Z,6.45
2023-02-22T08:46:05.858Z,6.62
2023-02-22T08:51:11.480Z,6.90
2023-02-22T08:56:18.479Z,6.88
2023-02-22T09:01:32.924Z,6.76
2023-02-22T09:06:33.650Z,7.01
2023-02-22T09:11:39.283Z,6.95
2023-02-22T09:16:46.137Z,7.04
2023-02-22T09:21:56.276Z,7.09
2023-02-22T09:27:03.455Z,7.14
2023-02-22T09:32:09.173Z,7.48
2023-02-22T09:37:17.728Z,7.56
2023-02-22T09:42:31.451Z,7.64
2023-02-22T09:47:52.257Z,7.70
2023-02-22T09:53:10.833Z,7.76
2023-02-22T09:58:43.258Z,7.78
2023-02-22T10:03:54.990Z,7.94
2023-02-22T10:09:05.108Z,8.18
2023-02-22T10:14:25.208Z,8.15
2023-02-22T10:20:06.526Z,8.19
2023-02-22T10:25:20.612Z,8.33
2023-02-22T10:30:38.058Z,8.38
2023-02-22T10:35:46.982Z,8.53
2023-02-22T10:41:13.736Z,8.95
2023-02-22T10:46:22.208Z,9.02
2023-02-22T10:51:27.981Z,9.05
2023-02-22T10:56:33.529Z,9.22
2023-02-22T11:01:43.666Z,9.17
2023-02-22T11:06:51.940Z,8.90
2023-02-22T11:12:12.973Z,9.05
2023-02-22T11:17:21.396Z,9.05
2023-02-22T11:22:32.878Z,9.12
2023-02-22T11:27:41.366Z,9.29
2023-02-22T11:32:49.549Z,9.32
2023-02-22T11:37:55.703Z,9.33
2023-02-22T11:43:19.101Z,9.35
2023-02-22T11:48:24.630Z,9.41
2023-02-22T11:53:51.045Z,9.51
2023-02-22T11:59:08.482Z,9.72
2023-02-22T12:04:53.458Z,9.83
2023-02-22T12:10:09.117Z,9.78
2023-02-22T12:15:17.539Z,9.79
2023-02-22T12:20:30.966Z,9.97
2023-02-22T12:25:39.663Z,10.06
2023-02-22T12:30:48.250Z,9.87
2023-02-22T12:35:56.834Z,9.88
2023-02-22T12:41:27.054Z,9.92
2023-02-22T12:46:43.212Z,10.04
2023-02-22T12:52:21.211Z,10.13
2023-02-22T12:57:38.066Z,10.02
2023-02-22T13:03:05.064Z,10.26
2023-02-22T13:08:19.426Z,10.29
2023-02-22T13:13:39.665Z,10.19
2023-02-22T13:18:54.398Z,10.04
2023-02-22T13:24:12.899Z,10.14
2023-02-22T13:29:28.568Z,10.16
2023-02-22T13:34:46.054Z,10.31
2023-02-22T13:40:09.910Z,10.24
2023-02-22T13:45:30.586Z,10.02
2023-02-22T13:50:56.034Z,10.03
2023-02-22T13:56:02.700Z,10.07
2023-02-22T14:01:08.172Z,9.97
2023-02-22T14:06:38.096Z,10.01
2023-02-22T14:11:45.290Z,9.94
2023-02-22T14:17:18.186Z,10.13
2023-02-22T14:22:30.000Z,10.10
2023-02-22T14:27:43.077Z,9.92
2023-02-22T14:32:49.530Z,9.76
2023-02-22T14:37:57.948Z,9.76
2023-02-22T14:43:20.077Z,9.77
2023-02-22T14:48:42.414Z,9.68
2023-02-22T14:53:53.443Z,9.51
2023-02-22T14:59:08.153Z,9.30
2023-02-22T15:04:28.903Z,9.26
2023-02-22T15:09:36.139Z,9.23
2023-02-22T15:14:44.358Z,9.21
2023-02-22T15:19:50.802Z,9.23
2023-02-22T15:25:01.623Z,9.11
2023-02-22T15:30:10.439Z,9.07
2023-02-22T15:35:18.966Z,8.98
2023-02-22T15:40:26.267Z,8.88
2023-02-22T15:45:32.736Z,8.84
2023-02-22T15:50:39.237Z,8.84
2023-02-22T15:55:49.513Z,8.73
2023-02-22T16:01:07.286Z,8.59
2023-02-22T16:06:16.097Z,8.52
2023-02-22T16:11:33.244Z,8.43
2023-02-22T16:16:43.558Z,8.30
2023-02-22T16:22:02.728Z,8.14
2023-02-22T16:27:17.417Z,8.08
2023-02-22T16:32:22.830Z,7.96
2023-02-22T16:37:29.407Z,7.88
2023-02-22T16:42:34.949Z,7.76
2023-02-22T16:47:40.340Z,7.56
2023-02-22T16:52:46.175Z,7.34
2023-02-22T16:57:52.012Z,7.29
2023-02-22T17:02:58.910Z,7.19
2023-02-22T17:08:05.631Z,7.19
2023-02-22T17:13:22.458Z,7.05
2023-02-22T17:18:22.216Z,7.02
2023-02-22T17:23:28.537Z,6.95
2023-02-22T17:28:34.091Z,6.83
2023-02-22T17:33:40.718Z,6.81
2023-02-22T17:38:46.104Z,6.68
2023-02-22T17:43:53.762Z,6.62
2023-02-22T17:48:59.151Z,5.07
2023-02-22T17:54:04.717Z,6.53
2023-02-22T17:59:10.236Z,6.41
2023-02-22T18:04:15.756Z,6.40
2023-02-22T18:09:21.261Z,6.37
2023-02-22T18:14:26.957Z,6.24
2023-02-22T18:19:32.483Z,6.23
2023-02-22T18:24:37.962Z,6.14
2023-02-22T18:29:44.654Z,6.15
2023-02-22T18:34:52.556Z,6.13
2023-02-22T18:39:59.174Z,6.07
2023-02-22T18:45:05.919Z,5.95
2023-02-22T18:50:13.113Z,5.78
2023-02-22T18:55:21.458Z,5.83
2023-02-22T19:00:28.880Z,5.75
2023-02-22T19:05:36.529Z,5.67
2023-02-22T19:10:42.071Z,5.55
2023-02-22T19:15:49.180Z,5.51
2023-02-22T19:21:03.770Z,5.45
2023-02-22T19:26:09.502Z,5.45
2023-02-22T19:31:18.383Z,5.40
2023-02-22T19:36:24.782Z,5.28
2023-02-22T19:41:30.958Z,5.30
2023-02-22T19:46:38.021Z,5.21
2023-02-22T19:51:43.592Z,5.26
2023-02-22T19:56:51.663Z,5.23
2023-02-22T20:01:58.445Z,5.16
2023-02-22T20:07:03.991Z,4.97
2023-02-22T20:12:10.677Z,5.05
2023-02-22T20:17:16.137Z,5.06
2023-02-22T20:22:23.189Z,4.99
2023-02-22T20:27:29.119Z,4.93
2023-02-22T20:32:35.687Z,4.91
2023-02-22T20:37:42.711Z,4.77
2023-02-22T20:42:48.105Z,4.83
2023-02-22T20:47:57.081Z,4.83
2023-02-22T20:53:02.537Z,4.78
2023-02-22T20:58:08.025Z,4.76
2023-02-22T21:03:14.118Z,4.75
2023-02-22T21:08:19.740Z,4.74
2023-02-22T21:13:25.468Z,4.65
2023-02-22T21:18:31.050Z,4.60
2023-02-22T21:23:37.493Z,4.47
2023-02-22T21:28:51.319Z,4.49
2023-02-22T21:33:56.096Z,4.49
2023-02-22T21:39:04.959Z,4.49
2023-02-22T21:44:10.655Z,4.40
2023-02-22T21:49:16.480Z,4.33
2023-02-22T21:54:23.049Z,4.34
2023-02-22T21:59:28.879Z,4.21
2023-02-22T22:04:35.134Z,4.21
2023-02-22T22:09:41.580Z,4.20
2023-02-22T22:14:46.953Z,4.08
2023-02-22T22:19:52.413Z,4.02
2023-02-22T22:25:00.229Z,3.97
2023-02-22T22:30:08.178Z,3.97
2023-02-22T22:35:14.805Z,3.99
2023-02-22T22:40:20.670Z,3.98
2023-02-22T22:45:26.238Z,3.83
2023-02-22T22:50:31.700Z,3.76
2023-02-22T22:55:41.928Z,3.73
2023-02-22T23:00:47.748Z,3.65
2023-02-22T23:05:54.335Z,3.58
2023-02-22T23:11:00.106Z,3.49
2023-02-22T23:16:07.528Z,3.51
2023-02-22T23:21:15.373Z,3.42
2023-02-22T23:26:20.984Z,3.35
2023-02-22T23:31:28.959Z,3.29
2023-02-22T23:36:35.379Z,3.18
2023-02-22T23:41:41.046Z,3.26
2023-02-22T23:46:52.063Z,3.19
2023-02-22T23:51:57.830Z,3.18
2023-02-22T23:57:04.660Z,3.15
